Time;durP1;ratioP1;P1;durP2;ratioP2;P2;SDS_P1;SDS_P2;PMS_P1;PMS_P2;Temp;Humidity;BMP_temperature;BMP_pressure;BME280_temperature;BME280_humidity;BME280_pressure;Samples;Min_cycle;Max_cycle;Signal;HPM_P1;HPM_P2
2021/09/13 00:01:09;;;;;;;32.50;23.87;;;;;;;15.34;63.14;99964.02;1752486;81;21447;-73
2021/09/13 00:03:35;;;;;;;33.28;22.73;;;;;;;15.28;63.25;99965.52;1761214;80;21783;-73
2021/09/13 00:06:03;;;;;;;34.05;23.67;;;;;;;15.21;63.38;99964.48;1783264;79;21011;-73
2021/09/13 00:08:31;;;;;;;36.05;23.92;;;;;;;15.14;63.53;99959.47;1780928;80;20976;-73
2021/09/13 00:10:58;;;;;;;34.30;24.02;;;;;;;15.09;63.64;99964.45;1768313;80;20933;-73
2021/09/13 00:13:27;;;;;;;33.67;23.98;;;;;;;15.04;63.74;99962.75;1729213;82;21071;-73
2021/09/13 00:15:54;;;;;;;33.60;24.40;;;;;;;15.00;63.80;99960.92;1775307;80;22530;-73
2021/09/13 00:18:22;;;;;;;39.18;26.15;;;;;;;14.96;63.86;99961.39;1724783;82;21044;-73
2021/09/13 00:20:50;;;;;;;37.08;26.77;;;;;;;14.90;63.92;99962.87;1745500;80;20941;-73
2021/09/13 00:23:16;;;;;;;38.38;26.62;;;;;;;14.86;63.91;99963.70;1749657;80;21032;-73
2021/09/13 00:25:44;;;;;;;36.60;25.77;;;;;;;14.81;63.87;99958.02;1725767;82;21036;-73
2021/09/13 00:28:11;;;;;;;38.98;26.10;;;;;;;14.78;63.89;99959.67;1708586;84;22224;-73
2021/09/13 00:30:38;;;;;;;36.25;26.17;;;;;;;14.76;63.92;99961.63;1744575;82;20975;-73
2021/09/13 00:33:04;;;;;;;39.88;26.35;;;;;;;14.74;63.96;99961.46;1708360;84;21035;-74
2021/09/13 00:35:34;;;;;;;43.38;26.62;;;;;;;14.72;64.06;99962.13;1773621;80;20981;-73
2021/09/13 00:38:02;;;;;;;33.65;25.60;;;;;;;14.68;64.12;99960.79;1762125;80;20948;-73
2021/09/13 00:40:31;;;;;;;37.98;26.50;;;;;;;14.67;64.19;99956.44;1744404;82;21855;-73
2021/09/13 00:42:57;;;;;;;36.77;26.07;;;;;;;14.65;64.25;99955.27;1744955;80;20949;-73
2021/09/13 00:45:24;;;;;;;38.17;26.17;;;;;;;14.63;64.30;99957.26;1744448;80;21015;-73
2021/09/13 00:47:51;;;;;;;35.98;25.43;;;;;;;14.62;64.32;99950.28;1744331;82;20957;-73
2021/09/13 00:50:17;;;;;;;35.80;25.30;;;;;;;14.59;64.35;99950.61;1744334;82;21031;-73
2021/09/13 00:52:49;;;;;;;34.78;25.05;;;;;;;14.56;64.42;99951.73;1744359;82;22205;-73
2021/09/13 00:55:15;;;;;;;35.60;24.72;;;;;;;14.55;64.56;99964.69;1762761;80;20965;-73
2021/09/13 00:57:43;;;;;;;38.60;25.08;;;;;;;14.50;64.67;99965.67;1775052;80;21019;-73
2021/09/13 01:00:11;;;;;;;33.98;24.25;;;;;;;14.48;64.90;99955.70;1775036;80;20945;-73
2021/09/13 01:02:39;;;;;;;33.73;24.05;;;;;;;14.46;65.11;99956.81;1775038;79;20913;-73
2021/09/13 01:05:07;;;;;;;35.55;24.77;;;;;;;14.42;65.24;99962.09;1774187;80;21388;-73
2021/09/13 01:07:35;;;;;;;33.28;24.10;;;;;;;14.38;65.37;99957.59;1737995;82;21013;-73
2021/09/13 01:10:03;;;;;;;36.83;25.00;;;;;;;14.37;65.41;99956.39;1775035;80;20929;-73
2021/09/13 01:12:30;;;;;;;30.05;23.67;;;;;;;14.37;65.49;99965.20;1764719;80;21254;-73
2021/09/13 01:14:58;;;;;;;33.60;24.30;;;;;;;14.36;65.51;99958.22;1761536;80;20977;-73
2021/09/13 01:17:25;;;;;;;34.45;23.98;;;;;;;14.32;65.59;99960.86;1738726;82;22338;-73
2021/09/13 01:19:52;;;;;;;32.58;24.75;;;;;;;14.28;65.63;99960.35;1722607;83;20958;-73
2021/09/13 01:22:21;;;;;;;33.10;23.80;;;;;;;14.24;65.60;99961.64;1709364;84;21013;-73
2021/09/13 01:25:04;;;;;;;32.93;23.83;;;;;;;14.18;65.66;99961.41;1705081;82;21091;-73
2021/09/13 01:27:31;;;;;;;36.50;23.77;;;;;;;14.12;65.79;99960.23;1682774;84;20985;-73
2021/09/13 01:29:59;;;;;;;31.57;23.15;;;;;;;14.10;65.83;99963.54;1698841;83;20950;-73
2021/09/13 01:32:26;;;;;;;34.00;23.60;;;;;;;14.06;65.93;99964.81;1709248;84;20956;-73
2021/09/13 01:34:55;;;;;;;33.75;24.65;;;;;;;14.04;65.97;99963.65;1714727;82;20985;-73
2021/09/13 01:37:23;;;;;;;33.92;25.27;;;;;;;14.03;65.99;99963.31;1747512;82;21538;-73
2021/09/13 01:39:50;;;;;;;35.70;24.05;;;;;;;14.00;66.09;99963.63;1747496;82;21415;-73
2021/09/13 01:42:17;;;;;;;34.53;23.92;;;;;;;13.98;66.15;99964.74;1747478;82;22825;-73
2021/09/13 01:44:44;;;;;;;35.90;24.05;;;;;;;13.92;66.23;99957.41;1720775;80;21379;-74
2021/09/13 01:47:10;;;;;;;31.10;23.80;;;;;;;13.89;66.32;99959.02;1748224;80;20941;-73
2021/09/13 01:49:38;;;;;;;30.25;23.30;;;;;;;13.87;66.38;99956.53;1747463;82;20992;-73
2021/09/13 01:52:05;;;;;;;31.90;24.57;;;;;;;13.85;66.46;99960.33;1747534;82;21534;-73
2021/09/13 01:54:32;;;;;;;32.38;23.83;;;;;;;13.80;66.53;99959.94;1747808;80;22393;-74
2021/09/13 01:57:01;;;;;;;32.95;23.98;;;;;;;13.75;66.64;99963.90;1747755;80;21074;-73
2021/09/13 01:59:29;;;;;;;30.72;23.27;;;;;;;13.73;66.67;99967.70;1747018;82;20940;-73
2021/09/13 02:01:56;;;;;;;31.50;23.85;;;;;;;13.69;66.74;99962.33;1747840;80;20976;-74
2021/09/13 02:04:23;;;;;;;34.05;24.00;;;;;;;13.66;66.78;99962.65;1777797;80;21067;-73
2021/09/13 02:06:51;;;;;;;31.27;23.80;;;;;;;13.63;66.82;99960.30;1760705;80;21376;-73
2021/09/13 02:09:19;;;;;;;31.87;25.25;;;;;;;13.58;66.88;99957.26;1747499;82;20992;-73
2021/09/13 02:11:46;;;;;;;34.18;25.10;;;;;;;13.57;66.89;99960.90;1747689;82;20948;-73
2021/09/13 02:14:12;;;;;;;34.95;23.80;;;;;;;13.53;66.85;99956.40;1747684;80;20949;-73
2021/09/13 02:16:40;;;;;;;35.13;24.90;;;;;;;13.51;66.90;99957.05;1758147;80;21440;-73
2021/09/13 02:19:08;;;;;;;33.67;24.32;;;;;;;13.49;66.94;99955.51;1777138;80;22460;-73
2021/09/13 02:21:37;;;;;;;38.23;25.55;;;;;;;13.46;66.99;99964.11;1778454;80;20969;-74
2021/09/13 02:24:05;;;;;;;34.63;25.62;;;;;;;13.46;67.03;99960.63;1750953;80;21040;-73
2021/09/13 02:26:32;;;;;;;39.42;26.10;;;;;;;13.45;67.05;99954.49;1770906;80;20921;-73
2021/09/13 02:28:58;;;;;;;38.85;25.70;;;;;;;13.44;67.06;99958.62;1747760;82;20940;-73
2021/09/13 02:31:26;;;;;;;37.88;26.93;;;;;;;13.42;67.10;99960.60;1748295;80;22147;-73
2021/09/13 02:33:53;;;;;;;37.28;26.75;;;;;;;13.40;67.15;99958.56;1747581;82;21044;-73
2021/09/13 02:36:22;;;;;;;38.17;27.20;;;;;;;13.37;67.17;99960.20;1748811;80;20988;-73
2021/09/13 02:38:48;;;;;;;39.48;27.50;;;;;;;13.35;67.21;99953.73;1747803;80;21011;-73
2021/09/13 02:41:15;;;;;;;35.00;27.10;;;;;;;13.34;67.22;99956.53;1747886;82;20992;-73
2021/09/13 02:43:41;;;;;;;37.13;27.32;;;;;;;13.31;67.18;99959.46;1747716;82;21841;-73
2021/09/13 02:46:08;;;;;;;40.50;27.85;;;;;;;13.27;67.19;99960.27;1747989;80;20920;-74
2021/09/13 02:48:34;;;;;;;37.48;27.37;;;;;;;13.24;67.24;99963.22;1764196;80;21078;-73
2021/09/13 02:51:02;;;;;;;36.73;26.20;;;;;;;13.23;67.20;99966.03;1747799;82;21004;-73
2021/09/13 02:53:34;;;;;;;34.10;26.33;;;;;;;13.17;67.18;99962.94;1753643;80;20941;-73
2021/09/13 02:56:01;;;;;;;37.93;26.82;;;;;;;13.14;67.25;99960.59;1778447;79;21332;-73
2021/09/13 02:58:31;;;;;;;36.35;27.13;;;;;;;13.11;67.34;99959.55;1757236;80;20948;-73
2021/09/13 03:00:57;;;;;;;37.83;26.17;;;;;;;13.10;67.40;99961.86;1748025;82;20988;-74
2021/09/13 03:03:24;;;;;;;37.25;26.42;;;;;;;13.09;67.45;99962.84;1747498;82;20987;-73
2021/09/13 03:05:51;;;;;;;35.45;26.82;;;;;;;13.08;67.49;99966.48;1747976;80;20988;-73
2021/09/13 03:08:18;;;;;;;37.30;26.00;;;;;;;13.08;67.50;99965.16;1751372;80;22863;-73
2021/09/13 03:10:45;;;;;;;35.28;25.70;;;;;;;13.07;67.58;99966.14;1748587;80;20986;-73
2021/09/13 03:13:12;;;;;;;37.08;25.77;;;;;;;13.06;67.64;99963.64;1747612;80;20994;-73
2021/09/13 03:15:40;;;;;;;39.35;26.10;;;;;;;13.08;67.72;99965.16;1745266;82;20992;-73
2021/09/13 03:18:07;;;;;;;38.90;27.37;;;;;;;13.09;67.90;99967.31;1744734;80;20992;-73
2021/09/13 03:20:33;;;;;;;38.65;27.07;;;;;;;13.08;68.21;99966.48;1738468;81;21833;-73
2021/09/13 03:23:00;;;;;;;39.27;27.80;;;;;;;13.08;68.39;99961.17;1743525;80;20932;-73
2021/09/13 03:25:26;;;;;;;36.90;27.20;;;;;;;13.11;68.50;99962.20;1744405;82;21033;-73
2021/09/13 03:27:53;;;;;;;36.68;27.30;;;;;;;13.14;68.53;99961.09;1745367;80;20945;-73
2021/09/13 03:30:22;;;;;;;38.08;27.02;;;;;;;13.15;68.51;99956.13;1729466;82;20957;-74
2021/09/13 03:32:48;;;;;;;38.15;26.97;;;;;;;13.13;68.46;99959.42;1744454;82;22219;-73
2021/09/13 03:35:15;;;;;;;38.83;27.13;;;;;;;13.11;68.39;99966.17;1744392;82;21036;-73
2021/09/13 03:37:41;;;;;;;38.17;27.07;;;;;;;13.05;68.34;99962.81;1744384;82;20948;-73
2021/09/13 03:40:09;;;;;;;38.00;27.37;;;;;;;13.02;68.30;99966.22;1754845;80;20961;-73
2021/09/13 03:42:36;;;;;;;37.95;27.73;;;;;;;13.02;68.27;99960.92;1699359;83;21076;-73
2021/09/13 03:45:04;;;;;;;43.55;30.48;;;;;;;12.98;68.32;99971.48;1757731;80;22179;-73
2021/09/13 03:47:49;;;;;;;66.77;39.88;;;;;;;12.97;68.35;99971.15;1775118;80;20937;-73
2021/09/13 03:50:17;;;;;;;86.70;47.58;;;;;;;12.96;68.35;99965.50;1770646;80;21012;-73
2021/09/13 03:52:43;;;;;;;102.50;56.53;;;;;;;12.93;68.32;99969.27;1710417;82;21494;-73
2021/09/13 03:55:10;;;;;;;132.35;69.32;;;;;;;12.92;68.31;99970.25;1744536;80;20981;-73
2021/09/13 03:57:37;;;;;;;101.78;56.20;;;;;;;12.91;68.31;99959.30;1744477;80;22221;-73
2021/09/13 04:00:05;;;;;;;89.85;50.05;;;;;;;12.90;68.35;99970.40;1744609;82;21016;-73
2021/09/13 04:02:36;;;;;;;83.07;46.73;;;;;;;12.91;68.39;99971.23;1746926;80;20996;-73
2021/09/13 04:05:03;;;;;;;81.92;45.12;;;;;;;12.91;68.43;99968.58;1758936;80;21419;-73
2021/09/13 04:08:08;;;;;;;81.35;45.65;;;;;;;12.92;68.47;99963.62;1743963;80;20949;-73
2021/09/13 04:10:21;;;;;;;86.02;48.08;;;;;;;12.95;68.58;99974.44;1766512;80;22661;-73
2021/09/13 04:12:59;;;;;;;73.65;44.77;;;;;;;12.96;68.62;99974.78;1717751;82;20977;-73
2021/09/13 04:15:28;;;;;;;66.40;38.10;;;;;;;13.00;68.62;99976.15;1762708;80;21000;-73
2021/09/13 04:18:04;;;;;;;56.15;36.15;;;;;;;13.04;68.65;99970.42;1732199;82;21713;-74
2021/09/13 04:20:35;;;;;;;56.37;35.45;;;;;;;13.09;68.71;99977.92;1751400;80;20995;-73
2021/09/13 04:23:09;;;;;;;59.65;34.60;;;;;;;13.13;68.77;99977.49;1743950;80;21881;-73
2021/09/13 04:25:38;;;;;;;51.42;35.05;;;;;;;13.20;68.84;99978.23;1736542;82;21467;-77
2021/09/13 04:28:08;;;;;;;60.85;34.80;;;;;;;13.27;68.87;99976.67;1771779;80;20945;-72
2021/09/13 04:30:38;;;;;;;58.73;34.67;;;;;;;13.35;68.96;99978.09;1737573;81;21444;-73
2021/09/13 04:33:22;;;;;;;52.43;32.17;;;;;;;13.42;69.02;99976.02;1688720;84;27542;-74
2021/09/13 04:36:06;;;;;;;48.90;32.05;;;;;;;13.52;68.76;99974.63;1721036;82;24184;-76
2021/09/13 04:38:51;;;;;;;49.20;31.95;;;;;;;13.60;69.08;99965.40;1740812;82;20929;-76
2021/09/13 04:41:26;;;;;;;45.52;31.73;;;;;;;13.71;69.07;99971.00;1770320;80;21481;-78
2021/09/13 04:44:10;;;;;;;44.75;31.82;;;;;;;13.84;69.14;99974.59;1760077;80;21416;-76
2021/09/13 04:46:46;;;;;;;45.80;30.92;;;;;;;13.95;69.22;99971.20;1716555;82;21515;-72
2021/09/13 04:49:24;;;;;;;44.77;30.48;;;;;;;14.08;69.28;99976.11;1769243;80;22441;-73
2021/09/13 04:51:57;;;;;;;45.40;28.92;;;;;;;14.19;69.39;99971.91;1744443;80;21086;-72
2021/09/13 04:54:25;;;;;;;42.65;29.10;;;;;;;14.32;69.48;99973.65;1751870;80;21503;-71
2021/09/13 04:56:52;;;;;;;41.75;29.40;;;;;;;14.45;69.53;99975.09;1744878;80;21455;-72
2021/09/13 04:59:18;;;;;;;50.73;29.90;;;;;;;14.54;69.53;99972.81;1751938;80;20996;-74
2021/09/13 05:01:45;;;;;;;42.35;30.02;;;;;;;14.65;69.50;99970.38;1744412;80;22202;-74
2021/09/13 05:04:13;;;;;;;40.80;28.90;;;;;;;14.73;69.49;99969.94;1743722;82;21067;-74
2021/09/13 05:06:39;;;;;;;44.80;29.37;;;;;;;14.83;69.39;99972.48;1766158;80;21028;-74
2021/09/13 05:09:07;;;;;;;45.90;29.87;;;;;;;14.93;69.41;99968.37;1746303;80;21023;-75
2021/09/13 05:11:36;;;;;;;46.58;29.95;;;;;;;15.02;69.37;99970.07;1772367;80;21669;-75
2021/09/13 05:14:02;;;;;;;42.55;28.30;;;;;;;15.11;69.43;99966.45;1735842;82;22543;-75
2021/09/13 05:16:32;;;;;;;47.55;28.25;;;;;;;15.20;69.43;99964.16;1781597;80;21346;-76
2021/09/13 05:19:00;;;;;;;38.17;27.22;;;;;;;15.32;69.38;99964.68;1745814;82;20996;-74
2021/09/13 05:21:27;;;;;;;43.23;24.12;;;;;;;15.42;69.32;99965.37;1779399;80;21012;-75
2021/09/13 05:23:58;;;;;;;32.98;21.68;;;;;;;15.52;69.11;99970.55;1752527;80;21028;-75
2021/09/13 05:26:24;;;;;;;34.00;22.10;;;;;;;15.66;68.92;99962.80;1775384;80;22211;-75
2021/09/13 05:28:51;;;;;;;29.05;20.57;;;;;;;15.83;68.56;99966.32;1783368;80;20937;-75
2021/09/13 05:31:17;;;;;;;24.55;19.55;;;;;;;16.03;68.03;99964.16;1783111;80;20988;-75
2021/09/13 05:33:44;;;;;;;28.15;18.55;;;;;;;16.23;67.42;99965.98;1729222;81;21032;-75
2021/09/13 05:36:11;;;;;;;26.60;19.42;;;;;;;16.45;66.78;99962.60;1783529;80;20944;-76
2021/09/13 05:38:38;;;;;;;23.38;17.77;;;;;;;16.67;65.85;99963.70;1759418;80;21830;-75
2021/09/13 05:41:21;;;;;;;25.10;19.00;;;;;;;16.87;64.73;99962.84;1677638;84;20970;-76
2021/09/13 05:43:48;;;;;;;23.38;17.90;;;;;;;17.09;63.93;99963.44;1688661;83;21008;-76
2021/09/13 05:46:15;;;;;;;23.30;17.50;;;;;;;17.25;63.19;99961.17;1760720;80;20980;-77
2021/09/13 05:48:41;;;;;;;24.55;17.75;;;;;;;17.39;62.48;99967.62;1781540;80;20984;-76
2021/09/13 05:51:08;;;;;;;23.87;17.50;;;;;;;17.53;61.75;99966.02;1766047;80;21868;-75
2021/09/13 05:53:36;;;;;;;22.73;17.73;;;;;;;17.65;61.38;99962.76;1783464;80;21440;-76
2021/09/13 05:56:03;;;;;;;25.43;18.30;;;;;;;17.76;61.29;99958.05;1783427;80;20940;-76
2021/09/13 05:58:31;;;;;;;21.65;17.23;;;;;;;17.86;61.31;99960.83;1773959;80;21444;-76
2021/09/13 06:00:58;;;;;;;21.40;15.95;;;;;;;17.96;61.10;99968.09;1761019;80;20944;-75
2021/09/13 06:03:25;;;;;;;24.05;17.37;;;;;;;18.07;60.38;99970.84;1766513;80;22208;-75
2021/09/13 06:05:53;;;;;;;20.60;17.32;;;;;;;18.13;59.86;99970.61;1769784;80;20964;-75
2021/09/13 06:08:21;;;;;;;25.70;16.93;;;;;;;18.16;59.67;99974.28;1763168;80;21043;-77
2021/09/13 06:10:47;;;;;;;21.60;17.17;;;;;;;18.22;59.62;99978.89;1783366;79;20965;-72
2021/09/13 06:13:15;;;;;;;23.02;17.37;;;;;;;18.29;59.40;99982.00;1774958;80;21536;-78
2021/09/13 06:15:42;;;;;;;22.80;16.73;;;;;;;18.36;59.24;99982.11;1724468;82;21849;-79
2021/09/13 06:18:11;;;;;;;23.30;17.05;;;;;;;18.44;59.29;99982.05;1763819;80;20937;-75
2021/09/13 06:20:37;;;;;;;23.27;17.07;;;;;;;18.53;59.35;99981.45;1760385;80;20983;-77
2021/09/13 06:23:04;;;;;;;21.68;15.50;;;;;;;18.63;59.35;99972.66;1772015;80;21016;-89
2021/09/13 06:25:33;;;;;;;20.32;16.23;;;;;;;18.76;59.08;99984.08;1778515;80;21407;-78
2021/09/13 06:27:59;;;;;;;23.30;16.17;;;;;;;18.86;58.90;99981.45;1750087;82;21855;-73
2021/09/13 06:30:28;;;;;;;19.02;15.53;;;;;;;18.98;58.24;99980.97;1721529;82;21027;-74
2021/09/13 06:32:56;;;;;;;20.82;15.53;;;;;;;19.09;58.01;99980.50;1763666;80;20976;-76
2021/09/13 06:35:22;;;;;;;18.90;15.25;;;;;;;19.22;57.56;99980.69;1763367;80;21012;-78
2021/09/13 06:37:51;;;;;;;17.90;14.68;;;;;;;19.32;56.67;99978.54;1739885;82;20940;-79
2021/09/13 06:40:18;;;;;;;18.42;14.10;;;;;;;19.41;56.37;99976.07;1764372;80;22438;-76
2021/09/13 06:42:44;;;;;;;17.85;14.45;;;;;;;19.52;55.96;99977.94;1754053;80;21485;-71
2021/09/13 06:45:19;;;;;;;20.10;13.50;;;;;;;19.63;55.61;99972.11;1776669;80;20988;-71
2021/09/13 06:47:45;;;;;;;19.82;14.05;;;;;;;19.73;54.73;99977.47;1767992;80;21393;-71
2021/09/13 06:50:21;;;;;;;18.70;13.85;;;;;;;19.85;54.40;99972.42;1760361;80;21328;-70
2021/09/13 06:52:49;;;;;;;17.07;13.85;;;;;;;19.95;54.01;99978.80;1776117;80;21798;-70
2021/09/13 06:55:18;;;;;;;20.25;13.75;;;;;;;20.07;53.94;99971.06;1752157;80;20984;-70
2021/09/13 06:57:46;;;;;;;19.32;13.05;;;;;;;20.20;53.45;99977.91;1759234;80;21467;-72
2021/09/13 07:00:14;;;;;;;17.70;13.28;;;;;;;20.33;52.79;99975.83;1766235;80;21482;-72
2021/09/13 07:02:43;;;;;;;20.40;13.70;;;;;;;20.41;52.29;99981.05;1757687;80;20941;-73
2021/09/13 07:05:10;;;;;;;18.62;13.72;;;;;;;20.50;51.79;99976.72;1763757;80;22499;-72
2021/09/13 07:07:37;;;;;;;16.55;12.85;;;;;;;20.61;51.83;99985.25;1776356;80;20985;-70
2021/09/13 07:10:05;;;;;;;18.05;12.85;;;;;;;20.69;51.44;99983.76;1750541;80;20944;-71
2021/09/13 07:12:33;;;;;;;22.42;13.72;;;;;;;20.77;51.24;99984.95;1757368;80;20944;-72
2021/09/13 07:15:01;;;;;;;15.58;13.00;;;;;;;20.90;51.28;99989.55;1754059;80;20932;-73
2021/09/13 07:17:27;;;;;;;17.90;12.37;;;;;;;21.03;50.47;99990.95;1735881;82;22135;-75
2021/09/13 07:19:56;;;;;;;16.62;13.05;;;;;;;21.14;49.96;99992.59;1719352;82;21103;-78
2021/09/13 07:22:22;;;;;;;18.57;12.50;;;;;;;21.19;49.31;99992.48;1695798;83;21020;-74
2021/09/13 07:24:49;;;;;;;22.32;13.08;;;;;;;21.24;49.49;99998.11;1695840;83;21037;-78
2021/09/13 07:27:16;;;;;;;17.65;13.22;;;;;;;21.36;49.56;99992.49;1725802;82;21075;-73
2021/09/13 07:29:42;;;;;;;20.62;13.30;;;;;;;21.47;49.11;99983.84;1709254;83;21845;-76
2021/09/13 07:32:09;;;;;;;18.10;12.58;;;;;;;21.52;49.05;99984.08;1705209;83;20965;-76
2021/09/13 07:34:36;;;;;;;17.07;12.60;;;;;;;21.59;49.29;99986.77;1721925;83;21507;-78
2021/09/13 07:37:03;;;;;;;18.32;12.53;;;;;;;21.70;49.12;99987.52;1718187;83;20985;-76
2021/09/13 07:39:30;;;;;;;18.27;12.93;;;;;;;21.82;48.98;99987.25;1702107;84;21013;-76
2021/09/13 07:41:57;;;;;;;15.55;12.50;;;;;;;21.92;48.59;99982.30;1695049;83;22259;-70
2021/09/13 07:44:24;;;;;;;16.77;12.68;;;;;;;21.98;48.36;99984.67;1721856;83;20962;-76
2021/09/13 07:46:52;;;;;;;15.80;12.43;;;;;;;22.04;48.36;99988.41;1718245;83;20965;-74
2021/09/13 07:49:20;;;;;;;16.27;12.35;;;;;;;22.16;48.23;99984.92;1713616;83;21068;-75
2021/09/13 07:51:47;;;;;;;14.65;12.00;;;;;;;22.28;48.06;99987.81;1703638;83;21006;-75
2021/09/13 07:54:15;;;;;;;15.63;12.43;;;;;;;22.37;47.85;99982.53;1712641;83;21855;-74
2021/09/13 07:56:42;;;;;;;20.23;12.50;;;;;;;22.49;47.84;99980.89;1712607;83;20953;-73
2021/09/13 07:59:08;;;;;;;14.58;11.55;;;;;;;22.59;48.15;99979.12;1711647;83;21499;-72
2021/09/13 08:01:35;;;;;;;16.57;11.70;;;;;;;22.72;47.62;99983.64;1718285;83;21459;-72
2021/09/13 08:04:03;;;;;;;18.00;12.13;;;;;;;22.85;47.46;99987.16;1707629;83;20969;-73
2021/09/13 08:06:30;;;;;;;15.03;12.55;;;;;;;22.94;46.98;99985.58;1726699;83;21946;-75
2021/09/13 08:08:57;;;;;;;17.50;12.10;;;;;;;23.00;46.73;99983.40;1729423;83;21076;-74
2021/09/13 08:11:24;;;;;;;17.52;12.68;;;;;;;23.05;46.89;99988.44;1711924;83;20961;-73
2021/09/13 08:13:52;;;;;;;17.17;13.15;;;;;;;23.10;46.33;99987.81;1730833;83;21397;-73
2021/09/13 08:16:21;;;;;;;17.48;11.90;;;;;;;23.13;46.85;99990.08;1726909;82;21048;-74
2021/09/13 08:18:51;;;;;;;15.50;11.68;;;;;;;23.25;47.32;99984.32;1701643;84;21880;-73
2021/09/13 08:21:19;;;;;;;17.57;11.75;;;;;;;23.43;46.90;99985.80;1701699;84;20945;-76
2021/09/13 08:23:48;;;;;;;15.00;11.70;;;;;;;23.61;46.25;99984.29;1701995;84;21064;-72
2021/09/13 08:26:16;;;;;;;17.77;11.90;;;;;;;23.73;46.56;99980.38;1701722;83;21049;-73
2021/09/13 08:28:43;;;;;;;15.55;11.85;;;;;;;23.86;46.49;99977.61;1701860;84;20968;-70
2021/09/13 08:31:11;;;;;;;14.83;11.35;;;;;;;24.03;46.59;99984.14;1701798;83;21860;-73
2021/09/13 08:33:37;;;;;;;14.98;11.43;;;;;;;24.25;46.37;99975.12;1708810;83;21013;-73
2021/09/13 08:36:04;;;;;;;14.00;11.22;;;;;;;24.44;45.73;99978.73;1730970;82;21587;-72
2021/09/13 08:38:31;;;;;;;13.45;10.18;;;;;;;24.55;44.88;99979.34;1730940;83;20961;-72
2021/09/13 08:40:58;;;;;;;10.63;9.13;;;;;;;24.57;43.69;99978.59;1730880;82;21500;-71
2021/09/13 08:43:24;;;;;;;11.22;8.75;;;;;;;24.62;42.55;99977.95;1727404;82;22149;-72
2021/09/13 08:45:58;;;;;;;12.20;8.65;;;;;;;24.67;41.90;99973.51;1701812;84;20982;-72
2021/09/13 08:53:25;;;;;;;9.58;7.90;;;;;;;24.80;40.57;99980.64;1701974;84;21032;-75
2021/09/13 08:55:50;;;;;;;12.75;8.88;;;;;;;24.84;40.94;99980.51;1701674;84;22230;-78
2021/09/13 08:58:22;;;;;;;11.08;8.98;;;;;;;24.90;40.79;99975.56;1701894;84;20997;-70
2021/09/13 09:00:46;;;;;;;10.23;8.60;;;;;;;24.95;40.90;99974.35;1702256;83;21428;-73
2021/09/13 09:03:12;;;;;;;10.43;8.38;;;;;;;25.01;40.22;99972.11;1712605;83;20961;-76
2021/09/13 09:05:45;;;;;;;15.72;8.73;;;;;;;25.00;40.30;99966.41;1731117;82;21448;-76
2021/09/13 09:08:29;;;;;;;12.23;8.78;;;;;;;25.07;40.41;99966.34;1748009;82;22285;-74
2021/09/13 09:10:58;;;;;;;17.98;9.85;;;;;;;25.18;40.31;99972.33;1717452;82;21028;-74
2021/09/13 09:13:27;;;;;;;13.38;8.85;;;;;;;25.29;40.50;99959.43;1749379;82;21539;-75
2021/09/13 09:15:59;;;;;;;13.95;8.73;;;;;;;25.46;41.61;99962.83;1722141;82;20960;-76
2021/09/13 09:18:48;;;;;;;11.88;9.03;;;;;;;25.66;40.12;99950.67;1715419;82;21045;-72
2021/09/13 09:21:33;;;;;;;10.28;8.23;;;;;;;25.76;39.17;99954.73;1774778;80;21476;-70
2021/09/13 09:24:06;;;;;;;11.38;8.78;;;;;;;25.84;39.47;99953.88;1774812;80;21064;-69
2021/09/13 09:26:33;;;;;;;14.03;8.80;;;;;;;25.95;39.09;99951.72;1744662;82;21381;-69
2021/09/13 09:29:00;;;;;;;9.30;8.30;;;;;;;26.04;39.23;99950.84;1744374;82;20949;-69
2021/09/13 09:31:44;;;;;;;11.28;8.58;;;;;;;26.11;38.66;99950.75;1754950;80;20994;-70
2021/09/13 09:34:15;;;;;;;10.43;8.33;;;;;;;26.24;38.56;99943.22;1775504;80;21829;-69
2021/09/13 09:37:10;;;;;;;12.45;8.70;;;;;;;26.42;37.59;99945.02;1775150;80;20917;-69
2021/09/13 09:39:52;;;;;;;14.58;8.98;;;;;;;26.52;37.88;99948.48;1775430;80;20996;-69
2021/09/13 09:42:36;;;;;;;10.38;8.10;;;;;;;26.60;36.86;99952.20;1774021;80;21510;-69
2021/09/13 09:45:25;;;;;;;9.28;8.13;;;;;;;26.63;36.69;99943.59;1757918;80;21505;-68
2021/09/13 09:48:07;;;;;;;10.15;8.53;;;;;;;26.65;36.84;99938.78;1744682;82;22188;-67
2021/09/13 09:50:34;;;;;;;10.70;8.03;;;;;;;26.73;38.06;99938.92;1744892;82;27776;-69
2021/09/13 09:53:18;;;;;;;14.07;8.30;;;;;;;26.98;38.29;99939.47;1744407;82;20948;-74
2021/09/13 09:55:53;;;;;;;12.47;8.35;;;;;;;27.25;38.44;99934.89;1744745;82;20993;-70
2021/09/13 09:58:17;;;;;;;10.82;8.13;;;;;;;27.52;37.24;99930.53;1744955;80;21070;-70
2021/09/13 10:00:45;;;;;;;11.12;8.40;;;;;;;27.67;36.16;99929.99;1744965;82;22178;-69
2021/09/13 10:03:11;;;;;;;9.78;8.15;;;;;;;27.74;36.82;99927.95;1744398;81;20932;-69
2021/09/13 10:05:38;;;;;;;12.53;8.63;;;;;;;27.92;36.88;99928.26;1719757;82;21031;-69
2021/09/13 10:08:06;;;;;;;15.60;8.50;;;;;;;28.06;36.54;99921.95;1744489;82;21032;-67
2021/09/13 10:10:32;;;;;;;10.38;7.87;;;;;;;28.16;36.15;99916.68;1744417;82;20940;-68
2021/09/13 10:13:01;;;;;;;16.15;8.55;;;;;;;28.26;35.76;99919.55;1744440;82;21845;-67
2021/09/13 10:15:28;;;;;;;10.78;8.65;;;;;;;28.28;35.95;99919.30;1745636;80;20969;-67
2021/09/13 10:17:55;;;;;;;9.93;8.23;;;;;;;28.28;36.34;99919.30;1744432;82;21035;-67
2021/09/13 10:20:23;;;;;;;14.10;8.55;;;;;;;28.32;35.37;99919.13;1744423;82;20992;-67
2021/09/13 10:22:52;;;;;;;11.93;8.18;;;;;;;28.19;35.55;99917.03;1744505;82;20976;-67
2021/09/13 10:25:18;;;;;;;11.95;8.18;;;;;;;28.09;35.35;99914.69;1744427;82;22454;-70
2021/09/13 10:27:47;;;;;;;10.35;8.03;;;;;;;27.90;35.95;99916.30;1744409;82;21446;-67
2021/09/13 10:30:23;;;;;;;9.73;7.80;;;;;;;27.69;36.43;99906.67;1744461;82;20948;-67
2021/09/13 10:32:52;;;;;;;12.85;8.15;;;;;;;27.60;36.86;99907.08;1754418;80;21360;-68
2021/09/13 10:35:20;;;;;;;12.75;8.23;;;;;;;27.68;36.13;99909.11;1775544;80;20933;-68
2021/09/13 10:37:51;;;;;;;9.58;8.38;;;;;;;27.78;36.06;99906.03;1775092;80;22872;-68
2021/09/13 10:40:28;;;;;;;10.78;8.25;;;;;;;27.88;35.12;99912.16;1775315;80;21397;-68
2021/09/13 10:42:59;;;;;;;19.40;8.70;;;;;;;27.89;34.58;99910.58;1775167;80;21102;-68
2021/09/13 10:45:41;;;;;;;24.72;8.38;;;;;;;27.90;34.46;99904.62;1775185;80;20972;-68
2021/09/13 10:48:19;;;;;;;14.03;9.18;;;;;;;28.04;34.87;99896.95;1754081;80;20980;-68
2021/09/13 10:50:49;;;;;;;21.33;9.13;;;;;;;28.33;34.55;99893.08;1774010;80;22720;-69
2021/09/13 10:53:24;;;;;;;25.12;9.25;;;;;;;28.56;33.37;99897.45;1775068;80;20989;-67
2021/09/13 10:56:04;;;;;;;35.03;9.13;;;;;;;28.62;33.15;99901.89;1775561;80;20984;-67
2021/09/13 10:58:53;;;;;;;20.57;8.73;;;;;;;28.63;33.97;99904.89;1775018;80;20941;-67
2021/09/13 11:01:27;;;;;;;15.08;8.78;;;;;;;28.81;32.79;99906.48;1775130;80;46629;-67
2021/09/13 11:04:06;;;;;;;13.90;8.53;;;;;;;29.07;33.04;99905.75;1775471;80;21809;-67
2021/09/13 11:06:38;;;;;;;21.73;8.43;;;;;;;29.20;33.17;99900.45;1774027;80;21414;-67
2021/09/13 11:09:10;;;;;;;14.50;8.50;;;;;;;29.36;33.73;99898.18;1775528;80;21528;-67
2021/09/13 11:11:44;;;;;;;9.18;8.25;;;;;;;29.63;32.80;99887.31;1775115;80;21436;-67
2021/09/13 11:14:17;;;;;;;15.55;9.00;;;;;;;30.07;32.23;99874.88;1775162;80;20937;-69
2021/09/13 11:16:50;;;;;;;10.63;8.70;;;;;;;30.07;32.23;99874.88;1776616;80;21804;-68
2021/09/13 11:19:18;;;;;;;11.70;8.03;;;;;;;30.13;31.51;99881.19;1778364;80;20984;-67
2021/09/13 11:21:50;;;;;;;11.93;8.58;;;;;;;30.08;30.66;99880.59;1783343;80;20971;-67
2021/09/13 11:24:23;;;;;;;10.67;8.87;;;;;;;30.04;31.09;99876.73;1781395;80;21230;-67
2021/09/13 11:26:58;;;;;;;15.08;8.88;;;;;;;30.10;31.36;99860.72;1782479;80;21712;-67
2021/09/13 11:29:33;;;;;;;13.35;8.68;;;;;;;30.08;31.26;99866.16;1781737;80;23018;-68
2021/09/13 11:32:07;;;;;;;15.55;8.53;;;;;;;29.81;30.95;99860.21;1759732;80;21059;-68
2021/09/13 11:34:41;;;;;;;16.37;9.28;;;;;;;29.69;31.76;99863.66;1743426;82;21423;-69